Aidablu — IBWX — position and weather

sailwx.info

Track history (hours):
 
Tides and Currents Weather Stations Pressure Air Temp Water Temp Dewpoint Dewpoint Depression Visibility Wind Speed Wind Dir Waves Ship Positions

Aidablu

Last reported at 2017-Mar-24 07:15 UTC. Time now 2017-Mar-24 20:05 UTC.
Position N 28°28' W 016°14'.

Length 252 m; draft 7.3 m.

Type: Ship. MMSI: 247282500.

Date/timePositionNaut miles runAvg speedWind from/ knotsBaromVisibWave heightAir tempDewpointWater temp
2017-Mar-24 07:15N 28°28' W 016°14'3 4.4
2017-Mar-24 06:33N 28°28' W 016°11'1412.5
2017-Mar-24 05:28N 28°21' W 015°57'1112.7
2017-Mar-24 04:33N 28°17' W 015°45'1413.1
2017-Mar-24 03:31N 28°16' W 015°30'96 3.0
2017-Mar-22 20:04N 28°34' W 013°43'714.2
2017-Mar-22 19:33N 28°41' W 013°39'1514.1
2017-Mar-22 18:28N 28°54' W 013°32'4 0.4
2017-Mar-22 09:19N 28°58' W 013°32'0 0.0
2017-Mar-22 08:25N 28°58' W 013°32'0 0.0
2017-Mar-22 07:18N 28°58' W 013°32'1 0.9
2017-Mar-22 06:33N 28°57' W 013°32'1111.5
2017-Mar-22 05:33N 28°50' W 013°42'  
2017-Mar-19 00:28N 28°33' W 015°23'1312.7
2017-Mar-18 23:25N 28°20' W 015°20'10 0.4
2017-Mar-17 23:24N 28°13' W 015°29'1113.3
2017-Mar-17 22:33N 28°15' W 015°42'1312.9
2017-Mar-17 21:33N 28°19' W 015°56'1513.7
2017-Mar-17 20:28N 28°27' W 016°10'16 1.1
2017-Mar-17 05:09N 28°21' W 015°53'813.3
2017-Mar-17 04:33N 28°17' W 015°45'1413.5
2017-Mar-17 03:32N 28°16' W 015°29'87 4.1
2017-Mar-16 06:13N 28°30' W 013°51'5 0.5
2017-Mar-15 20:17N 28°31' W 013°46'1114.0
2017-Mar-15 19:32N 28°40' W 013°39'1414.6
2017-Mar-15 18:33N 28°52' W 013°33'6 5.0
2017-Mar-15 17:28N 28°58' W 013°32'0 0.0
2017-Mar-15 16:33N 28°58' W 013°32'0 0.0
2017-Mar-15 15:27N 28°58' W 013°32'0 0.0
2017-Mar-15 13:20N 28°58' W 013°32'0 0.0
2017-Mar-15 12:25N 28°58' W 013°32'0 0.0
2017-Mar-15 10:31N 28°58' W 013°32'0 0.0
2017-Mar-15 09:30N 28°58' W 013°32'0 0.0
2017-Mar-15 08:30N 28°58' W 013°32'0 0.0
2017-Mar-15 07:27N 28°58' W 013°32'4 4.5
2017-Mar-15 06:34N 28°55' W 013°35'6 6.4
2017-Mar-15 05:33N 28°51' W 013°41'6 6.0
2017-Mar-15 04:33N 28°48' W 013°47'1311.7
2017-Mar-15 03:28N 28°55' W 013°59'  
Track history (hours):
 
Tides and Currents Weather Stations Pressure Air Temp Water Temp Dewpoint Dewpoint Depression Visibility Wind Speed Wind Dir Waves Ship Positions

Aidablu

Last reported at 2017-Mar-24 07:15 UTC. Time now 2017-Mar-24 20:05 UTC.
Position N 28°28' W 016°14'.

Length 252 m; draft 7.3 m.

Type: Ship. MMSI: 247282500.

Date/timePositionNaut miles runAvg speedWind from/ knotsBaromVisibWave heightAir tempDewpointWater temp
2017-Mar-24 07:15N 28°28' W 016°14'3 4.4
2017-Mar-24 06:33N 28°28' W 016°11'1412.5
2017-Mar-24 05:28N 28°21' W 015°57'1112.7
2017-Mar-24 04:33N 28°17' W 015°45'1413.1
2017-Mar-24 03:31N 28°16' W 015°30'96 3.0
2017-Mar-22 20:04N 28°34' W 013°43'714.2
2017-Mar-22 19:33N 28°41' W 013°39'1514.1
2017-Mar-22 18:28N 28°54' W 013°32'4 0.4
2017-Mar-22 09:19N 28°58' W 013°32'0 0.0
2017-Mar-22 08:25N 28°58' W 013°32'0 0.0
2017-Mar-22 07:18N 28°58' W 013°32'1 0.9
2017-Mar-22 06:33N 28°57' W 013°32'1111.5
2017-Mar-22 05:33N 28°50' W 013°42'  
2017-Mar-19 00:28N 28°33' W 015°23'1312.7
2017-Mar-18 23:25N 28°20' W 015°20'10 0.4
2017-Mar-17 23:24N 28°13' W 015°29'1113.3
2017-Mar-17 22:33N 28°15' W 015°42'1312.9
2017-Mar-17 21:33N 28°19' W 015°56'1513.7
2017-Mar-17 20:28N 28°27' W 016°10'16 1.1
2017-Mar-17 05:09N 28°21' W 015°53'813.3
2017-Mar-17 04:33N 28°17' W 015°45'1413.5
2017-Mar-17 03:32N 28°16' W 015°29'87 4.1
2017-Mar-16 06:13N 28°30' W 013°51'5 0.5
2017-Mar-15 20:17N 28°31' W 013°46'1114.0
2017-Mar-15 19:32N 28°40' W 013°39'1414.6
2017-Mar-15 18:33N 28°52' W 013°33'6 5.0
2017-Mar-15 17:28N 28°58' W 013°32'0 0.0
2017-Mar-15 16:33N 28°58' W 013°32'0 0.0
2017-Mar-15 15:27N 28°58' W 013°32'0 0.0
2017-Mar-15 13:20N 28°58' W 013°32'0 0.0
2017-Mar-15 12:25N 28°58' W 013°32'0 0.0
2017-Mar-15 10:31N 28°58' W 013°32'0 0.0
2017-Mar-15 09:30N 28°58' W 013°32'0 0.0
2017-Mar-15 08:30N 28°58' W 013°32'0 0.0
2017-Mar-15 07:27N 28°58' W 013°32'4 4.5
2017-Mar-15 06:34N 28°55' W 013°35'6 6.4
2017-Mar-15 05:33N 28°51' W 013°41'6 6.0
2017-Mar-15 04:33N 28°48' W 013°47'1311.7
2017-Mar-15 03:28N 28°55' W 013°59'  

Dump ship's entire track history